EDT,Max TemperatureF,Mean TemperatureF,Min TemperatureF,Max Dew PointF,MeanDew PointF,Min DewpointF,Max Humidity, Mean Humidity, Min Humidity, Max Sea Level PressureIn, Mean Sea Level PressureIn, Min Sea Level PressureIn, Max VisibilityMiles, Mean VisibilityMiles, Min VisibilityMiles, Max Wind SpeedMPH, Mean Wind SpeedMPH, Max Gust SpeedMPH,PrecipitationIn, CloudCover, Events, WindDirDegrees
2013-5-1,71,65,58,63,57,55,93,80,61,30.20,30.16,30.11,10,10,8,14,8,20,T,6,Rain,52
2013-5-2,73,68,63,61,59,57,93,80,66,30.21,30.17,30.13,10,10,10,16,10,23,T,7,,57
2013-5-3,66,62,57,61,57,50,93,87,65,30.14,30.09,30.04,10,7,1,16,9,24,0.05,7,Rain,61
2013-5-4,63,59,54,58,53,46,90,80,62,30.04,29.98,29.91,10,10,5,17,10,28,0.08,8,Rain,65
2013-5-5,67,63,58,63,61,55,93,92,87,29.92,29.83,29.78,10,7,1,20,10,29,1.24,8,Rain,109
2013-5-6,72,64,55,62,53,45,100,78,38,29.94,29.87,29.82,10,9,2,15,6,18,0.00,3,,242
2013-5-7,70,60,49,60,53,48,93,82,57,29.98,29.94,29.89,10,9,5,13,3,16,0.13,5,Rain,212
2013-5-8,80,65,50,57,53,49,96,70,40,30.04,30.00,29.96,10,10,9,20,5,23,0.00,2,,237
2013-5-9,85,70,55,62,56,52,93,67,32,30.10,30.06,30.01,10,10,8,12,2,15,0.00,0,,268
2013-5-10,87,74,60,63,59,57,97,61,36,30.09,30.04,29.99,10,9,4,17,6,22,0.00,1,,204
2013-5-11,84,74,63,64,62,59,93,70,47,30.02,29.94,29.88,10,9,3,16,7,23,0.00,1,,224
2013-5-12,81,71,60,64,53,39,87,55,25,30.03,29.92,29.86,10,10,10,21,8,25,0.00,2,,287
2013-5-13,73,62,50,44,39,34,77,45,25,30.17,30.10,30.03,10,10,9,15,6,22,0.00,0,,2
2013-5-14,75,61,46,49,40,33,83,49,23,30.28,30.20,30.15,10,10,10,12,4,17,0.00,0,,198
2013-5-15,89,72,54,58,53,46,83,53,34,30.17,30.08,29.99,10,10,9,20,9,24,0.00,0,,223
2013-5-16,83,72,60,64,61,57,90,69,51,30.07,30.03,29.99,10,10,8,13,5,15,0.00,0,,231
2013-5-17,88,76,63,65,62,59,100,66,40,30.12,30.07,30.04,10,9,4,10,3,14,0.00,0,,206
2013-5-18,83,74,64,70,65,60,93,80,55,30.14,30.10,30.05,10,9,1,14,3,18,0.30,3,Rain,194
2013-5-19,81,74,67,72,69,66,97,91,71,30.13,30.09,30.06,10,7,2,15,3,20,0.78,6,Rain,183
2013-5-20,85,77,68,72,69,65,100,87,63,30.12,30.08,30.02,10,8,1,13,4,18,0.00,6,,192
2013-5-21,86,77,68,71,69,64,100,87,59,30.08,30.03,29.98,10,7,1,17,3,24,T,6,,193
2013-5-22,86,76,66,68,66,64,100,82,51,30.05,30.00,29.91,10,7,0,16,4,22,0.00,4,Fog,182
2013-5-23,86,77,67,68,66,61,100,80,44,29.96,29.93,29.85,10,9,5,18,6,24,0.00,4,,249
2013-5-24,83,69,55,62,51,37,73,49,23,30.18,30.00,29.89,10,10,10,20,9,29,0.00,0,Rain,333
2013-5-25,79,64,49,53,42,34,80,48,23,30.32,30.23,30.18,10,10,10,13,4,18,0.00,0,,34
2013-5-26,83,68,53,55,51,47,93,60,31,30.29,30.21,30.17,10,10,10,12,3,15,0.00,0,,46
2013-5-27,86,71,56,64,58,53,93,66,40,30.26,30.21,30.15,10,10,9,10,3,15,0.00,1,,172
2013-5-28,85,73,61,65,62,59,100,70,47,30.25,30.21,30.17,10,10,6,14,4,20,0.00,1,,165
2013-5-29,86,73,60,66,61,59,97,69,43,30.26,30.21,30.17,10,10,6,13,3,16,0.00,1,,153
2013-5-30,88,74,60,68,64,59,100,73,43,30.28,30.22,30.16,10,10,3,14,3,20,0.00,2,,131
2013-5-31,88,77,65,72,68,64,100,79,46,30.24,30.19,30.12,10,8,0,14,5,18,0.00,4,Fog,144